Etusivu
METAR-TAF:

METAR-TAF

Lentoasemat :

Dinard, Ranska

Leveyspiiri: 48-35N, Pituuspiiri: 002-04W, korkeus merenpinnasta: 65 m

Tämänhetkinen sää

Tämä raportti tehtiin 24 minuuttia sitten, kello 05.00 UTC
Tuuli 5 kn etelästä/lounaasta
Lämpötila 3°C
Kosteus 87%
Ilmanpaine 1029 hPa
Näkyvyys 10 km tai enemmän
ei pilviä alle 1500 m:ssä eikä cumulonimbus-pilviä

METAR: LFRD 210500Z AUTO 21005KT CAVOK 03/01 Q1029 NOSIG

Aika: 06:24 (05:24 UTC)

Sääennuste

Tämä raportti tehtiin 6 tuntia ja 24 minuuttia sitten, kello 23.00 UTC
Ennuste voimassa 21. päivästä klo 00 UTC - 21. päivään klo 24 UTC
Tuuli 10 kn lounaasta
Näkyvyys 10 km tai enemmän
Hajanaisia pilviä 3000 ft:n korkeudessa

TAF: LFRD 202300Z 2100/2124 23010KT 9999 SCT030

Säähavainnot ja -ennusteet yli 4000 lentoasemalta (METAR- ja TAF-raportit).

Käytössä olevat sääasemat on merkitty karttaan keltaisilla ja punaisilla pisteillä.

Aseta hiiri pisteen päälle nähdäksesi sääaseman nimen.

Klikkaa sitten nähdäksesi säähavainnot ja -ennusteet.

Kartan vaihtaminen: klikkaa mustalla rastilla varustettuja vihreitä pisteitä, niin voit zoomata sisään; viivalla varustettua vihreää pistettä, niin voit zoomata ulos tai vihreitä nuolia, niin pääset viereisille kartoille.


METAR-TAF: